sensor_id;sensor_type;location;lat;lon;timestamp;P1;durP1;ratioP1;P2;durP2;ratioP2
19623;SDS011;9959;49.798;9.928;2024-03-08T00:00:12;39.33;;;16.98;;
19623;SDS011;9959;49.798;9.928;2024-03-08T00:02:43;39.80;;;17.58;;
19623;SDS011;9959;49.798;9.928;2024-03-08T00:05:14;44.80;;;17.67;;
19623;SDS011;9959;49.798;9.928;2024-03-08T00:07:41;40.08;;;16.75;;
19623;SDS011;9959;49.798;9.928;2024-03-08T00:10:10;37.38;;;16.13;;
19623;SDS011;9959;49.798;9.928;2024-03-08T00:12:41;39.17;;;17.65;;
19623;SDS011;9959;49.798;9.928;2024-03-08T00:15:16;42.00;;;17.60;;
19623;SDS011;9959;49.798;9.928;2024-03-08T00:17:45;43.80;;;18.05;;
19623;SDS011;9959;49.798;9.928;2024-03-08T00:20:15;40.78;;;18.02;;
19623;SDS011;9959;49.798;9.928;2024-03-08T00:22:45;38.75;;;17.80;;
19623;SDS011;9959;49.798;9.928;2024-03-08T00:25:13;40.25;;;17.00;;
19623;SDS011;9959;49.798;9.928;2024-03-08T00:27:40;39.72;;;16.27;;
19623;SDS011;9959;49.798;9.928;2024-03-08T00:30:10;40.53;;;17.38;;
19623;SDS011;9959;49.798;9.928;2024-03-08T00:32:40;41.83;;;17.90;;
19623;SDS011;9959;49.798;9.928;2024-03-08T00:35:07;37.90;;;16.23;;
19623;SDS011;9959;49.798;9.928;2024-03-08T00:37:34;44.40;;;17.75;;
19623;SDS011;9959;49.798;9.928;2024-03-08T00:40:02;44.65;;;18.50;;
19623;SDS011;9959;49.798;9.928;2024-03-08T00:42:29;38.47;;;16.42;;
19623;SDS011;9959;49.798;9.928;2024-03-08T00:44:56;45.42;;;17.88;;
19623;SDS011;9959;49.798;9.928;2024-03-08T00:47:25;43.35;;;17.70;;
19623;SDS011;9959;49.798;9.928;2024-03-08T00:49:52;44.42;;;18.30;;
19623;SDS011;9959;49.798;9.928;2024-03-08T00:52:19;45.08;;;19.45;;
19623;SDS011;9959;49.798;9.928;2024-03-08T00:54:46;41.42;;;17.85;;
19623;SDS011;9959;49.798;9.928;2024-03-08T00:57:13;45.45;;;19.20;;
19623;SDS011;9959;49.798;9.928;2024-03-08T00:59:40;41.60;;;18.00;;
19623;SDS011;9959;49.798;9.928;2024-03-08T01:02:08;43.20;;;18.00;;
19623;SDS011;9959;49.798;9.928;2024-03-08T01:04:35;44.95;;;19.00;;
19623;SDS011;9959;49.798;9.928;2024-03-08T01:07:02;44.80;;;17.70;;
19623;SDS011;9959;49.798;9.928;2024-03-08T01:09:29;44.28;;;19.10;;
19623;SDS011;9959;49.798;9.928;2024-03-08T01:11:56;40.00;;;18.08;;
19623;SDS011;9959;49.798;9.928;2024-03-08T01:14:24;45.45;;;19.48;;
19623;SDS011;9959;49.798;9.928;2024-03-08T01:16:55;46.10;;;18.17;;
19623;SDS011;9959;49.798;9.928;2024-03-08T01:19:23;47.97;;;19.45;;
19623;SDS011;9959;49.798;9.928;2024-03-08T01:21:51;48.95;;;19.38;;
19623;SDS011;9959;49.798;9.928;2024-03-08T01:24:18;45.63;;;18.67;;
19623;SDS011;9959;49.798;9.928;2024-03-08T01:26:45;46.00;;;18.92;;
19623;SDS011;9959;49.798;9.928;2024-03-08T01:29:12;44.05;;;18.45;;
19623;SDS011;9959;49.798;9.928;2024-03-08T01:31:39;44.00;;;18.85;;
19623;SDS011;9959;49.798;9.928;2024-03-08T01:34:06;43.30;;;17.80;;
19623;SDS011;9959;49.798;9.928;2024-03-08T01:36:33;44.58;;;19.13;;
19623;SDS011;9959;49.798;9.928;2024-03-08T01:39:00;41.65;;;18.67;;
19623;SDS011;9959;49.798;9.928;2024-03-08T01:41:27;48.83;;;18.17;;
19623;SDS011;9959;49.798;9.928;2024-03-08T01:43:56;45.78;;;18.95;;
19623;SDS011;9959;49.798;9.928;2024-03-08T01:46:23;49.28;;;19.50;;
19623;SDS011;9959;49.798;9.928;2024-03-08T01:48:56;51.28;;;19.27;;
19623;SDS011;9959;49.798;9.928;2024-03-08T01:51:23;51.17;;;19.30;;
19623;SDS011;9959;49.798;9.928;2024-03-08T01:53:50;48.50;;;18.73;;
19623;SDS011;9959;49.798;9.928;2024-03-08T01:56:18;49.35;;;18.73;;
19623;SDS011;9959;49.798;9.928;2024-03-08T01:58:45;48.38;;;19.25;;
19623;SDS011;9959;49.798;9.928;2024-03-08T02:01:14;48.53;;;18.60;;
19623;SDS011;9959;49.798;9.928;2024-03-08T02:03:42;53.47;;;18.73;;
19623;SDS011;9959;49.798;9.928;2024-03-08T02:06:11;44.50;;;19.08;;
19623;SDS011;9959;49.798;9.928;2024-03-08T02:08:44;51.63;;;19.55;;
19623;SDS011;9959;49.798;9.928;2024-03-08T02:11:13;47.72;;;18.17;;
19623;SDS011;9959;49.798;9.928;2024-03-08T02:13:41;48.15;;;19.15;;
19623;SDS011;9959;49.798;9.928;2024-03-08T02:16:08;48.22;;;18.80;;
19623;SDS011;9959;49.798;9.928;2024-03-08T02:18:35;46.13;;;18.90;;
19623;SDS011;9959;49.798;9.928;2024-03-08T02:21:04;53.97;;;19.17;;
19623;SDS011;9959;49.798;9.928;2024-03-08T02:23:33;46.92;;;18.50;;
19623;SDS011;9959;49.798;9.928;2024-03-08T02:26:01;50.83;;;19.35;;
19623;SDS011;9959;49.798;9.928;2024-03-08T02:28:28;47.13;;;19.05;;
19623;SDS011;9959;49.798;9.928;2024-03-08T02:30:55;46.28;;;19.33;;
19623;SDS011;9959;49.798;9.928;2024-03-08T02:33:24;46.60;;;18.63;;
19623;SDS011;9959;49.798;9.928;2024-03-08T02:35:53;49.83;;;19.08;;
19623;SDS011;9959;49.798;9.928;2024-03-08T02:38:21;56.42;;;19.45;;
19623;SDS011;9959;49.798;9.928;2024-03-08T02:40:49;51.30;;;19.70;;
19623;SDS011;9959;49.798;9.928;2024-03-08T02:43:19;49.35;;;18.98;;
19623;SDS011;9959;49.798;9.928;2024-03-08T02:45:47;45.30;;;19.33;;
19623;SDS011;9959;49.798;9.928;2024-03-08T02:48:14;45.13;;;18.35;;
19623;SDS011;9959;49.798;9.928;2024-03-08T02:50:43;48.05;;;18.77;;
19623;SDS011;9959;49.798;9.928;2024-03-08T02:53:12;49.63;;;18.88;;
19623;SDS011;9959;49.798;9.928;2024-03-08T02:55:40;44.33;;;17.10;;
19623;SDS011;9959;49.798;9.928;2024-03-08T02:58:08;52.53;;;19.00;;
19623;SDS011;9959;49.798;9.928;2024-03-08T03:00:37;45.55;;;18.40;;
19623;SDS011;9959;49.798;9.928;2024-03-08T03:03:08;51.55;;;19.52;;
19623;SDS011;9959;49.798;9.928;2024-03-08T03:05:35;51.92;;;19.65;;
19623;SDS011;9959;49.798;9.928;2024-03-08T03:08:02;53.60;;;19.65;;
19623;SDS011;9959;49.798;9.928;2024-03-08T03:10:36;42.10;;;16.38;;
19623;SDS011;9959;49.798;9.928;2024-03-08T03:13:04;55.95;;;19.50;;
19623;SDS011;9959;49.798;9.928;2024-03-08T03:15:31;49.35;;;17.23;;
19623;SDS011;9959;49.798;9.928;2024-03-08T03:18:00;57.15;;;20.67;;
19623;SDS011;9959;49.798;9.928;2024-03-08T03:20:28;51.58;;;19.52;;
19623;SDS011;9959;49.798;9.928;2024-03-08T03:23:15;47.33;;;18.10;;
19623;SDS011;9959;49.798;9.928;2024-03-08T03:25:47;50.38;;;19.45;;
19623;SDS011;9959;49.798;9.928;2024-03-08T03:28:14;50.70;;;20.25;;
19623;SDS011;9959;49.798;9.928;2024-03-08T03:30:46;49.33;;;18.95;;
19623;SDS011;9959;49.798;9.928;2024-03-08T03:33:13;44.30;;;18.25;;
19623;SDS011;9959;49.798;9.928;2024-03-08T03:35:43;51.30;;;19.60;;
19623;SDS011;9959;49.798;9.928;2024-03-08T03:38:11;52.58;;;19.08;;
19623;SDS011;9959;49.798;9.928;2024-03-08T03:40:38;48.63;;;19.50;;
19623;SDS011;9959;49.798;9.928;2024-03-08T03:43:09;46.55;;;17.92;;
19623;SDS011;9959;49.798;9.928;2024-03-08T03:45:39;48.65;;;18.50;;
19623;SDS011;9959;49.798;9.928;2024-03-08T03:48:08;45.13;;;18.10;;
19623;SDS011;9959;49.798;9.928;2024-03-08T03:50:37;50.70;;;18.73;;
19623;SDS011;9959;49.798;9.928;2024-03-08T03:53:05;48.35;;;18.88;;
19623;SDS011;9959;49.798;9.928;2024-03-08T03:55:36;49.55;;;19.85;;
19623;SDS011;9959;49.798;9.928;2024-03-08T03:58:07;54.63;;;20.27;;
19623;SDS011;9959;49.798;9.928;2024-03-08T04:00:34;50.80;;;18.35;;
19623;SDS011;9959;49.798;9.928;2024-03-08T04:03:01;52.67;;;18.38;;
19623;SDS011;9959;49.798;9.928;2024-03-08T04:05:28;50.50;;;18.52;;
19623;SDS011;9959;49.798;9.928;2024-03-08T04:07:55;57.42;;;20.13;;
19623;SDS011;9959;49.798;9.928;2024-03-08T04:10:22;51.10;;;19.45;;
19623;SDS011;9959;49.798;9.928;2024-03-08T04:12:49;52.47;;;19.90;;
19623;SDS011;9959;49.798;9.928;2024-03-08T04:15:16;55.38;;;18.95;;
19623;SDS011;9959;49.798;9.928;2024-03-08T04:17:43;53.15;;;18.60;;
19623;SDS011;9959;49.798;9.928;2024-03-08T04:20:13;58.45;;;20.02;;
19623;SDS011;9959;49.798;9.928;2024-03-08T04:22:41;56.10;;;20.77;;
19623;SDS011;9959;49.798;9.928;2024-03-08T04:25:09;44.30;;;17.55;;
19623;SDS011;9959;49.798;9.928;2024-03-08T04:27:36;48.38;;;19.40;;
19623;SDS011;9959;49.798;9.928;2024-03-08T04:30:03;55.75;;;19.88;;
19623;SDS011;9959;49.798;9.928;2024-03-08T04:32:34;52.53;;;19.52;;
19623;SDS011;9959;49.798;9.928;2024-03-08T04:35:05;55.10;;;20.35;;
19623;SDS011;9959;49.798;9.928;2024-03-08T04:37:32;57.88;;;21.73;;
19623;SDS011;9959;49.798;9.928;2024-03-08T04:39:59;54.50;;;20.48;;
19623;SDS011;9959;49.798;9.928;2024-03-08T04:42:29;52.13;;;18.67;;
19623;SDS011;9959;49.798;9.928;2024-03-08T04:44:59;59.65;;;21.45;;
19623;SDS011;9959;49.798;9.928;2024-03-08T04:47:26;55.47;;;19.98;;
19623;SDS011;9959;49.798;9.928;2024-03-08T04:49:53;54.78;;;19.70;;
19623;SDS011;9959;49.798;9.928;2024-03-08T04:52:23;51.05;;;18.63;;
19623;SDS011;9959;49.798;9.928;2024-03-08T04:54:50;55.78;;;19.92;;
19623;SDS011;9959;49.798;9.928;2024-03-08T04:57:17;62.53;;;20.15;;
19623;SDS011;9959;49.798;9.928;2024-03-08T04:59:45;54.75;;;18.98;;
19623;SDS011;9959;49.798;9.928;2024-03-08T05:02:13;61.65;;;21.08;;
19623;SDS011;9959;49.798;9.928;2024-03-08T05:04:40;59.03;;;20.50;;
19623;SDS011;9959;49.798;9.928;2024-03-08T05:07:07;64.22;;;21.55;;
19623;SDS011;9959;49.798;9.928;2024-03-08T05:09:34;56.17;;;19.65;;
19623;SDS011;9959;49.798;9.928;2024-03-08T05:12:02;52.63;;;19.67;;
19623;SDS011;9959;49.798;9.928;2024-03-08T05:14:30;58.92;;;20.25;;
19623;SDS011;9959;49.798;9.928;2024-03-08T05:16:57;54.03;;;20.30;;
19623;SDS011;9959;49.798;9.928;2024-03-08T05:19:24;53.35;;;20.35;;
19623;SDS011;9959;49.798;9.928;2024-03-08T05:21:51;57.70;;;20.02;;
19623;SDS011;9959;49.798;9.928;2024-03-08T05:24:18;56.08;;;23.15;;
19623;SDS011;9959;49.798;9.928;2024-03-08T05:26:45;53.08;;;18.42;;
19623;SDS011;9959;49.798;9.928;2024-03-08T05:29:13;55.95;;;22.48;;
19623;SDS011;9959;49.798;9.928;2024-03-08T05:31:50;49.72;;;18.77;;
19623;SDS011;9959;49.798;9.928;2024-03-08T05:34:22;52.90;;;20.70;;
19623;SDS011;9959;49.798;9.928;2024-03-08T05:36:49;51.45;;;20.00;;
19623;SDS011;9959;49.798;9.928;2024-03-08T05:39:17;58.55;;;21.80;;
19623;SDS011;9959;49.798;9.928;2024-03-08T05:41:46;47.63;;;18.50;;
19623;SDS011;9959;49.798;9.928;2024-03-08T05:44:13;56.92;;;20.98;;
19623;SDS011;9959;49.798;9.928;2024-03-08T05:46:40;60.75;;;20.00;;
19623;SDS011;9959;49.798;9.928;2024-03-08T05:49:07;51.35;;;19.75;;
19623;SDS011;9959;49.798;9.928;2024-03-08T05:51:38;51.58;;;20.38;;
19623;SDS011;9959;49.798;9.928;2024-03-08T05:54:09;53.60;;;20.10;;
19623;SDS011;9959;49.798;9.928;2024-03-08T05:56:40;53.75;;;20.52;;
19623;SDS011;9959;49.798;9.928;2024-03-08T05:59:11;55.35;;;19.27;;
19623;SDS011;9959;49.798;9.928;2024-03-08T06:01:39;56.63;;;21.27;;
19623;SDS011;9959;49.798;9.928;2024-03-08T06:04:09;48.35;;;19.83;;
19623;SDS011;9959;49.798;9.928;2024-03-08T06:06:38;50.78;;;19.33;;
19623;SDS011;9959;49.798;9.928;2024-03-08T06:09:07;58.63;;;21.02;;
19623;SDS011;9959;49.798;9.928;2024-03-08T06:11:39;44.92;;;18.02;;
19623;SDS011;9959;49.798;9.928;2024-03-08T06:14:06;54.25;;;20.17;;
19623;SDS011;9959;49.798;9.928;2024-03-08T06:16:33;60.05;;;21.48;;
19623;SDS011;9959;49.798;9.928;2024-03-08T06:19:00;56.65;;;21.13;;
19623;SDS011;9959;49.798;9.928;2024-03-08T06:21:30;56.67;;;21.27;;
19623;SDS011;9959;49.798;9.928;2024-03-08T06:23:57;54.58;;;20.75;;
19623;SDS011;9959;49.798;9.928;2024-03-08T06:26:24;50.05;;;19.05;;
19623;SDS011;9959;49.798;9.928;2024-03-08T06:28:55;53.75;;;21.08;;
19623;SDS011;9959;49.798;9.928;2024-03-08T06:31:23;53.75;;;20.58;;
19623;SDS011;9959;49.798;9.928;2024-03-08T06:33:50;55.58;;;20.45;;
19623;SDS011;9959;49.798;9.928;2024-03-08T06:36:18;48.50;;;20.90;;
19623;SDS011;9959;49.798;9.928;2024-03-08T06:38:45;57.35;;;20.40;;
19623;SDS011;9959;49.798;9.928;2024-03-08T06:41:13;54.47;;;21.40;;
19623;SDS011;9959;49.798;9.928;2024-03-08T06:43:47;62.67;;;23.63;;
19623;SDS011;9959;49.798;9.928;2024-03-08T06:46:15;50.90;;;20.90;;
19623;SDS011;9959;49.798;9.928;2024-03-08T06:48:42;54.90;;;21.73;;
19623;SDS011;9959;49.798;9.928;2024-03-08T06:51:10;52.28;;;19.90;;
19623;SDS011;9959;49.798;9.928;2024-03-08T06:53:38;54.05;;;20.52;;
19623;SDS011;9959;49.798;9.928;2024-03-08T06:56:07;60.85;;;23.25;;
19623;SDS011;9959;49.798;9.928;2024-03-08T06:58:34;53.70;;;22.45;;
19623;SDS011;9959;49.798;9.928;2024-03-08T07:01:01;56.47;;;21.40;;
19623;SDS011;9959;49.798;9.928;2024-03-08T07:03:31;51.45;;;20.23;;
19623;SDS011;9959;49.798;9.928;2024-03-08T07:05:59;54.22;;;22.55;;
19623;SDS011;9959;49.798;9.928;2024-03-08T07:08:29;59.55;;;21.63;;
19623;SDS011;9959;49.798;9.928;2024-03-08T07:10:57;61.85;;;21.85;;
19623;SDS011;9959;49.798;9.928;2024-03-08T07:13:26;54.42;;;21.52;;
19623;SDS011;9959;49.798;9.928;2024-03-08T07:15:56;48.75;;;19.38;;
19623;SDS011;9959;49.798;9.928;2024-03-08T07:18:23;53.78;;;23.80;;
19623;SDS011;9959;49.798;9.928;2024-03-08T07:20:51;50.42;;;20.15;;
19623;SDS011;9959;49.798;9.928;2024-03-08T07:23:18;51.85;;;16.73;;
19623;SDS011;9959;49.798;9.928;2024-03-08T07:26:05;47.78;;;20.35;;
19623;SDS011;9959;49.798;9.928;2024-03-08T07:28:32;44.53;;;19.60;;
19623;SDS011;9959;49.798;9.928;2024-03-08T07:30:59;64.13;;;23.35;;
19623;SDS011;9959;49.798;9.928;2024-03-08T07:33:44;55.90;;;18.13;;
19623;SDS011;9959;49.798;9.928;2024-03-08T07:36:11;52.00;;;22.50;;
19623;SDS011;9959;49.798;9.928;2024-03-08T07:38:38;46.33;;;19.85;;
19623;SDS011;9959;49.798;9.928;2024-03-08T07:41:05;57.42;;;23.33;;
19623;SDS011;9959;49.798;9.928;2024-03-08T07:43:33;52.38;;;20.83;;
19623;SDS011;9959;49.798;9.928;2024-03-08T07:46:00;51.72;;;23.88;;
19623;SDS011;9959;49.798;9.928;2024-03-08T07:48:27;56.30;;;22.65;;
19623;SDS011;9959;49.798;9.928;2024-03-08T07:50:54;54.38;;;22.20;;
19623;SDS011;9959;49.798;9.928;2024-03-08T07:53:22;56.42;;;22.17;;
19623;SDS011;9959;49.798;9.928;2024-03-08T07:55:51;56.58;;;21.05;;
19623;SDS011;9959;49.798;9.928;2024-03-08T07:58:18;52.20;;;21.50;;
19623;SDS011;9959;49.798;9.928;2024-03-08T08:00:45;54.08;;;20.77;;
19623;SDS011;9959;49.798;9.928;2024-03-08T08:03:12;52.72;;;21.50;;
19623;SDS011;9959;49.798;9.928;2024-03-08T08:05:40;52.88;;;21.08;;
19623;SDS011;9959;49.798;9.928;2024-03-08T08:08:10;47.72;;;21.88;;
19623;SDS011;9959;49.798;9.928;2024-03-08T08:10:38;55.22;;;24.02;;
19623;SDS011;9959;49.798;9.928;2024-03-08T08:13:05;53.78;;;24.00;;
19623;SDS011;9959;49.798;9.928;2024-03-08T08:15:32;48.47;;;22.13;;
19623;SDS011;9959;49.798;9.928;2024-03-08T08:18:01;46.47;;;20.48;;
19623;SDS011;9959;49.798;9.928;2024-03-08T08:20:29;48.25;;;19.80;;
19623;SDS011;9959;49.798;9.928;2024-03-08T08:22:59;53.83;;;22.75;;
19623;SDS011;9959;49.798;9.928;2024-03-08T08:25:26;54.50;;;21.13;;
19623;SDS011;9959;49.798;9.928;2024-03-08T08:27:53;55.15;;;22.88;;
19623;SDS011;9959;49.798;9.928;2024-03-08T08:30:20;55.67;;;23.58;;
19623;SDS011;9959;49.798;9.928;2024-03-08T08:32:47;49.10;;;22.42;;
19623;SDS011;9959;49.798;9.928;2024-03-08T08:35:16;46.17;;;20.60;;
19623;SDS011;9959;49.798;9.928;2024-03-08T08:37:45;48.90;;;22.40;;
19623;SDS011;9959;49.798;9.928;2024-03-08T08:40:12;45.17;;;22.00;;
19623;SDS011;9959;49.798;9.928;2024-03-08T08:42:42;48.47;;;20.90;;
19623;SDS011;9959;49.798;9.928;2024-03-08T08:45:09;51.00;;;21.42;;
19623;SDS011;9959;49.798;9.928;2024-03-08T08:47:43;46.50;;;20.63;;
19623;SDS011;9959;49.798;9.928;2024-03-08T08:50:12;49.10;;;20.15;;
19623;SDS011;9959;49.798;9.928;2024-03-08T08:52:40;46.35;;;21.20;;
19623;SDS011;9959;49.798;9.928;2024-03-08T08:55:07;48.40;;;21.17;;
19623;SDS011;9959;49.798;9.928;2024-03-08T08:57:34;45.47;;;22.27;;
19623;SDS011;9959;49.798;9.928;2024-03-08T09:00:02;48.00;;;21.98;;
19623;SDS011;9959;49.798;9.928;2024-03-08T09:02:34;46.55;;;20.63;;
19623;SDS011;9959;49.798;9.928;2024-03-08T09:05:01;46.00;;;21.08;;
19623;SDS011;9959;49.798;9.928;2024-03-08T09:07:29;39.72;;;19.58;;
19623;SDS011;9959;49.798;9.928;2024-03-08T09:09:56;42.95;;;20.35;;
19623;SDS011;9959;49.798;9.928;2024-03-08T09:12:29;43.97;;;20.33;;
19623;SDS011;9959;49.798;9.928;2024-03-08T09:14:56;39.63;;;18.23;;
19623;SDS011;9959;49.798;9.928;2024-03-08T09:17:28;44.03;;;20.23;;
19623;SDS011;9959;49.798;9.928;2024-03-08T09:19:57;42.30;;;19.88;;
19623;SDS011;9959;49.798;9.928;2024-03-08T09:22:24;39.92;;;20.35;;
19623;SDS011;9959;49.798;9.928;2024-03-08T09:24:51;44.97;;;19.67;;
19623;SDS011;9959;49.798;9.928;2024-03-08T09:27:18;40.95;;;20.38;;
19623;SDS011;9959;49.798;9.928;2024-03-08T09:29:46;39.03;;;19.48;;
19623;SDS011;9959;49.798;9.928;2024-03-08T09:32:13;36.92;;;18.73;;
19623;SDS011;9959;49.798;9.928;2024-03-08T09:34:39;36.95;;;19.23;;
19623;SDS011;9959;49.798;9.928;2024-03-08T09:37:07;36.92;;;17.95;;
19623;SDS011;9959;49.798;9.928;2024-03-08T09:39:35;31.48;;;18.13;;
19623;SDS011;9959;49.798;9.928;2024-03-08T09:42:02;36.13;;;19.80;;
19623;SDS011;9959;49.798;9.928;2024-03-08T09:44:30;33.88;;;18.50;;
19623;SDS011;9959;49.798;9.928;2024-03-08T09:46:57;35.10;;;19.25;;
19623;SDS011;9959;49.798;9.928;2024-03-08T09:49:26;32.80;;;18.05;;
19623;SDS011;9959;49.798;9.928;2024-03-08T09:51:53;32.03;;;18.77;;
19623;SDS011;9959;49.798;9.928;2024-03-08T09:54:20;33.70;;;18.25;;
19623;SDS011;9959;49.798;9.928;2024-03-08T09:56:50;30.35;;;17.23;;
19623;SDS011;9959;49.798;9.928;2024-03-08T09:59:18;31.52;;;17.85;;
19623;SDS011;9959;49.798;9.928;2024-03-08T10:02:12;30.98;;;17.15;;
19623;SDS011;9959;49.798;9.928;2024-03-08T10:04:41;29.73;;;16.42;;
19623;SDS011;9959;49.798;9.928;2024-03-08T10:07:09;28.70;;;14.90;;
19623;SDS011;9959;49.798;9.928;2024-03-08T10:09:36;33.05;;;17.67;;
19623;SDS011;9959;49.798;9.928;2024-03-08T10:12:03;39.50;;;17.60;;
19623;SDS011;9959;49.798;9.928;2024-03-08T10:14:31;35.67;;;17.42;;
19623;SDS011;9959;49.798;9.928;2024-03-08T10:16:59;30.83;;;17.20;;
19623;SDS011;9959;49.798;9.928;2024-03-08T10:19:27;37.80;;;16.52;;
19623;SDS011;9959;49.798;9.928;2024-03-08T10:21:57;37.42;;;16.75;;
19623;SDS011;9959;49.798;9.928;2024-03-08T10:24:26;29.33;;;17.27;;
19623;SDS011;9959;49.798;9.928;2024-03-08T10:26:53;31.88;;;16.27;;
19623;SDS011;9959;49.798;9.928;2024-03-08T10:29:25;34.03;;;17.27;;
19623;SDS011;9959;49.798;9.928;2024-03-08T10:31:52;30.58;;;16.23;;
19623;SDS011;9959;49.798;9.928;2024-03-08T10:34:19;44.13;;;22.75;;
19623;SDS011;9959;49.798;9.928;2024-03-08T10:36:46;33.47;;;17.55;;
19623;SDS011;9959;49.798;9.928;2024-03-08T10:39:21;33.72;;;15.52;;
19623;SDS011;9959;49.798;9.928;2024-03-08T10:41:56;40.85;;;17.85;;
19623;SDS011;9959;49.798;9.928;2024-03-08T10:44:30;35.28;;;17.67;;
19623;SDS011;9959;49.798;9.928;2024-03-08T10:47:26;31.70;;;16.80;;
19623;SDS011;9959;49.798;9.928;2024-03-08T10:50:09;27.92;;;16.02;;
19623;SDS011;9959;49.798;9.928;2024-03-08T10:52:45;32.22;;;19.23;;
19623;SDS011;9959;49.798;9.928;2024-03-08T10:55:15;30.77;;;18.42;;
19623;SDS011;9959;49.798;9.928;2024-03-08T10:57:44;32.17;;;18.55;;
19623;SDS011;9959;49.798;9.928;2024-03-08T11:00:11;31.58;;;17.48;;
19623;SDS011;9959;49.798;9.928;2024-03-08T11:02:39;31.10;;;17.60;;
19623;SDS011;9959;49.798;9.928;2024-03-08T11:05:10;28.02;;;16.42;;
19623;SDS011;9959;49.798;9.928;2024-03-08T11:07:42;127.68;;;24.23;;
19623;SDS011;9959;49.798;9.928;2024-03-08T11:10:19;35.95;;;17.88;;
19623;SDS011;9959;49.798;9.928;2024-03-08T11:12:47;28.65;;;16.40;;
19623;SDS011;9959;49.798;9.928;2024-03-08T11:15:15;28.83;;;16.50;;
19623;SDS011;9959;49.798;9.928;2024-03-08T11:17:48;28.10;;;17.23;;
19623;SDS011;9959;49.798;9.928;2024-03-08T11:20:17;30.73;;;17.20;;
19623;SDS011;9959;49.798;9.928;2024-03-08T11:22:54;25.95;;;16.60;;
19623;SDS011;9959;49.798;9.928;2024-03-08T11:25:31;30.48;;;16.83;;
19623;SDS011;9959;49.798;9.928;2024-03-08T11:28:16;31.65;;;17.70;;
19623;SDS011;9959;49.798;9.928;2024-03-08T11:33:31;27.15;;;16.40;;
19623;SDS011;9959;49.798;9.928;2024-03-08T11:38:41;28.77;;;16.08;;
19623;SDS011;9959;49.798;9.928;2024-03-08T11:41:10;30.73;;;16.55;;
19623;SDS011;9959;49.798;9.928;2024-03-08T11:43:44;31.95;;;17.02;;
19623;SDS011;9959;49.798;9.928;2024-03-08T11:46:13;27.92;;;16.67;;
19623;SDS011;9959;49.798;9.928;2024-03-08T11:48:42;28.65;;;16.85;;
19623;SDS011;9959;49.798;9.928;2024-03-08T11:51:11;29.33;;;18.38;;
19623;SDS011;9959;49.798;9.928;2024-03-08T11:53:41;30.38;;;16.88;;
19623;SDS011;9959;49.798;9.928;2024-03-08T11:56:14;32.97;;;20.92;;
19623;SDS011;9959;49.798;9.928;2024-03-08T11:58:55;27.83;;;16.63;;
19623;SDS011;9959;49.798;9.928;2024-03-08T12:01:24;29.13;;;16.83;;
19623;SDS011;9959;49.798;9.928;2024-03-08T12:03:55;29.02;;;16.48;;
19623;SDS011;9959;49.798;9.928;2024-03-08T12:06:26;32.72;;;17.27;;
19623;SDS011;9959;49.798;9.928;2024-03-08T12:09:09;26.90;;;16.52;;
19623;SDS011;9959;49.798;9.928;2024-03-08T12:11:37;28.95;;;17.02;;
19623;SDS011;9959;49.798;9.928;2024-03-08T12:14:18;27.90;;;16.65;;
19623;SDS011;9959;49.798;9.928;2024-03-08T12:16:50;25.15;;;15.35;;
19623;SDS011;9959;49.798;9.928;2024-03-08T12:19:19;26.48;;;16.05;;
19623;SDS011;9959;49.798;9.928;2024-03-08T12:21:46;28.40;;;16.05;;
19623;SDS011;9959;49.798;9.928;2024-03-08T12:24:16;25.88;;;15.70;;
19623;SDS011;9959;49.798;9.928;2024-03-08T12:27:01;26.48;;;14.95;;
19623;SDS011;9959;49.798;9.928;2024-03-08T12:29:59;22.77;;;14.48;;
19623;SDS011;9959;49.798;9.928;2024-03-08T12:32:29;25.70;;;15.55;;
19623;SDS011;9959;49.798;9.928;2024-03-08T12:34:56;22.48;;;13.07;;
19623;SDS011;9959;49.798;9.928;2024-03-08T12:37:32;25.48;;;14.68;;
19623;SDS011;9959;49.798;9.928;2024-03-08T12:39:59;24.80;;;14.35;;
19623;SDS011;9959;49.798;9.928;2024-03-08T12:42:30;24.58;;;15.55;;
19623;SDS011;9959;49.798;9.928;2024-03-08T12:44:58;27.45;;;16.02;;
19623;SDS011;9959;49.798;9.928;2024-03-08T12:47:26;25.83;;;15.75;;
19623;SDS011;9959;49.798;9.928;2024-03-08T12:49:55;28.13;;;16.15;;
19623;SDS011;9959;49.798;9.928;2024-03-08T12:52:22;24.17;;;14.73;;
19623;SDS011;9959;49.798;9.928;2024-03-08T12:54:49;23.92;;;15.60;;
19623;SDS011;9959;49.798;9.928;2024-03-08T12:57:17;23.05;;;15.18;;
19623;SDS011;9959;49.798;9.928;2024-03-08T12:59:45;24.75;;;14.93;;
19623;SDS011;9959;49.798;9.928;2024-03-08T13:02:12;23.95;;;14.65;;
19623;SDS011;9959;49.798;9.928;2024-03-08T13:04:39;22.90;;;15.27;;
19623;SDS011;9959;49.798;9.928;2024-03-08T13:07:07;26.17;;;15.00;;
19623;SDS011;9959;49.798;9.928;2024-03-08T13:09:34;25.42;;;15.45;;
19623;SDS011;9959;49.798;9.928;2024-03-08T13:12:04;23.00;;;14.07;;
19623;SDS011;9959;49.798;9.928;2024-03-08T13:14:32;22.70;;;14.73;;
19623;SDS011;9959;49.798;9.928;2024-03-08T13:17:01;23.52;;;15.30;;
19623;SDS011;9959;49.798;9.928;2024-03-08T13:19:30;23.55;;;14.50;;
19623;SDS011;9959;49.798;9.928;2024-03-08T13:21:57;22.20;;;14.77;;
19623;SDS011;9959;49.798;9.928;2024-03-08T13:24:24;22.15;;;13.70;;
19623;SDS011;9959;49.798;9.928;2024-03-08T13:26:51;23.35;;;14.55;;
19623;SDS011;9959;49.798;9.928;2024-03-08T13:29:19;19.98;;;13.73;;
19623;SDS011;9959;49.798;9.928;2024-03-08T13:31:48;20.67;;;13.65;;
19623;SDS011;9959;49.798;9.928;2024-03-08T13:34:18;20.67;;;13.73;;
19623;SDS011;9959;49.798;9.928;2024-03-08T13:36:57;21.60;;;13.82;;
19623;SDS011;9959;49.798;9.928;2024-03-08T13:39:27;21.67;;;12.88;;
19623;SDS011;9959;49.798;9.928;2024-03-08T13:41:56;22.08;;;12.68;;
19623;SDS011;9959;49.798;9.928;2024-03-08T13:44:23;23.50;;;13.23;;
19623;SDS011;9959;49.798;9.928;2024-03-08T13:46:59;18.95;;;12.75;;
19623;SDS011;9959;49.798;9.928;2024-03-08T13:49:26;18.42;;;12.30;;
19623;SDS011;9959;49.798;9.928;2024-03-08T13:51:54;20.60;;;13.15;;
19623;SDS011;9959;49.798;9.928;2024-03-08T13:54:25;20.52;;;12.30;;
19623;SDS011;9959;49.798;9.928;2024-03-08T13:56:54;19.80;;;12.10;;
19623;SDS011;9959;49.798;9.928;2024-03-08T13:59:21;18.60;;;10.98;;
19623;SDS011;9959;49.798;9.928;2024-03-08T14:01:51;19.67;;;11.95;;
19623;SDS011;9959;49.798;9.928;2024-03-08T14:04:20;25.13;;;12.18;;
19623;SDS011;9959;49.798;9.928;2024-03-08T14:06:48;21.00;;;11.82;;
19623;SDS011;9959;49.798;9.928;2024-03-08T14:09:16;20.20;;;12.02;;
19623;SDS011;9959;49.798;9.928;2024-03-08T14:11:43;18.73;;;11.57;;
19623;SDS011;9959;49.798;9.928;2024-03-08T14:14:11;19.38;;;11.00;;
19623;SDS011;9959;49.798;9.928;2024-03-08T14:16:44;20.00;;;11.77;;
19623;SDS011;9959;49.798;9.928;2024-03-08T14:19:11;18.35;;;11.10;;
19623;SDS011;9959;49.798;9.928;2024-03-08T14:21:38;16.77;;;11.23;;
19623;SDS011;9959;49.798;9.928;2024-03-08T14:24:06;16.50;;;9.88;;
19623;SDS011;9959;49.798;9.928;2024-03-08T14:26:34;15.07;;;9.70;;
19623;SDS011;9959;49.798;9.928;2024-03-08T14:29:01;17.77;;;11.13;;
19623;SDS011;9959;49.798;9.928;2024-03-08T14:31:28;15.18;;;10.10;;
19623;SDS011;9959;49.798;9.928;2024-03-08T14:33:56;16.10;;;10.85;;
19623;SDS011;9959;49.798;9.928;2024-03-08T14:36:25;17.67;;;10.18;;
19623;SDS011;9959;49.798;9.928;2024-03-08T14:38:55;17.20;;;10.93;;
19623;SDS011;9959;49.798;9.928;2024-03-08T14:41:22;13.73;;;10.02;;
19623;SDS011;9959;49.798;9.928;2024-03-08T14:43:49;18.60;;;10.30;;
19623;SDS011;9959;49.798;9.928;2024-03-08T14:46:16;14.27;;;9.45;;
19623;SDS011;9959;49.798;9.928;2024-03-08T14:48:50;17.70;;;10.35;;
19623;SDS011;9959;49.798;9.928;2024-03-08T14:51:20;18.67;;;10.50;;